Time;durP1;ratioP1;P1;durP2;ratioP2;P2;SDS_P1;SDS_P2;PMS_P1;PMS_P2;Temp;Humidity;BMP_temperature;BMP_pressure;BME280_temperature;BME280_humidity;BME280_pressure;Samples;Min_cycle;Max_cycle;Signal;HPM_P1;HPM_P2
2023/09/27 00:02:25;;;;;;;0.03;0.03;;;15.80;99.90;;;;;;5031977;28;20139;-64
2023/09/27 00:04:51;;;;;;;0.40;0.40;;;15.80;99.90;;;;;;5030638;28;20045;-64
2023/09/27 00:07:16;;;;;;;0.20;0.20;;;15.80;99.90;;;;;;5017305;28;20118;-64
2023/09/27 00:09:42;;;;;;;0.25;0.22;;;15.80;99.90;;;;;;5029800;28;20396;-64
2023/09/27 00:12:09;;;;;;;2.58;1.90;;;15.80;99.90;;;;;;5020207;28;20046;-64
2023/09/27 00:14:34;;;;;;;0.38;0.38;;;15.80;99.90;;;;;;5032138;28;20055;-64
2023/09/27 00:17:00;;;;;;;1.33;1.23;;;15.70;99.90;;;;;;5024198;28;20033;-64
2023/09/27 00:19:26;;;;;;;0.85;0.85;;;15.70;99.90;;;;;;5019285;28;20091;-64
2023/09/27 00:21:52;;;;;;;0.32;0.32;;;15.70;99.90;;;;;;5025996;28;20046;-64
2023/09/27 00:24:17;;;;;;;0.30;0.30;;;15.60;99.90;;;;;;5021878;28;20064;-64
2023/09/27 00:26:43;;;;;;;0.10;0.10;;;15.60;99.90;;;;;;5030696;28;20049;-64
2023/09/27 00:29:09;;;;;;;0.30;0.30;;;15.60;99.90;;;;;;5030169;28;20049;-64
2023/09/27 00:31:34;;;;;;;0.28;0.28;;;15.60;99.90;;;;;;5022295;28;20081;-64
2023/09/27 00:34:00;;;;;;;0.70;0.40;;;15.60;99.90;;;;;;5031483;28;20132;-64
2023/09/27 00:36:25;;;;;;;0.30;0.30;;;15.60;99.90;;;;;;5018632;28;20050;-64
2023/09/27 00:38:51;;;;;;;0.95;0.82;;;15.60;99.90;;;;;;5025031;28;20042;-64
2023/09/27 00:41:16;;;;;;;0.80;0.80;;;15.60;99.90;;;;;;5025309;28;20144;-64
2023/09/27 00:43:42;;;;;;;0.20;0.20;;;15.60;99.90;;;;;;5023539;28;20053;-64
2023/09/27 00:46:08;;;;;;;2.00;1.58;;;15.60;99.90;;;;;;5025066;28;20242;-65
2023/09/27 00:48:36;;;;;;;0.45;0.45;;;15.60;99.90;;;;;;5026172;28;20044;-64
2023/09/27 00:51:05;;;;;;;0.95;0.95;;;15.50;99.90;;;;;;5024667;28;20052;-64
2023/09/27 00:53:33;;;;;;;0.20;0.20;;;15.40;99.90;;;;;;5027791;28;20128;-64
2023/09/27 00:56:00;;;;;;;0.52;0.52;;;15.40;99.90;;;;;;5031547;28;20136;-64
2023/09/27 00:58:25;;;;;;;0.40;0.40;;;15.40;99.90;;;;;;5024756;28;20046;-64
2023/09/27 01:00:52;;;;;;;0.40;0.38;;;15.40;99.90;;;;;;5024322;28;20041;-64
2023/09/27 01:03:19;;;;;;;0.63;0.47;;;15.40;99.90;;;;;;5031937;28;20059;-64
2023/09/27 01:05:45;;;;;;;0.10;0.10;;;15.40;99.90;;;;;;5017163;28;20038;-64
2023/09/27 01:08:11;;;;;;;0.28;0.28;;;15.50;99.90;;;;;;5024857;28;20045;-64
2023/09/27 01:10:37;;;;;;;0.73;0.73;;;15.50;99.90;;;;;;5021482;28;20399;-64
2023/09/27 01:13:04;;;;;;;0.10;0.10;;;15.50;99.90;;;;;;5029689;28;20158;-64
2023/09/27 01:15:30;;;;;;;1.45;1.20;;;15.50;99.90;;;;;;5024197;28;20042;-64
2023/09/27 01:17:57;;;;;;;0.40;0.40;;;15.60;99.90;;;;;;5019880;28;20041;-64
2023/09/27 01:20:25;;;;;;;0.20;0.20;;;15.60;99.90;;;;;;5029421;28;20132;-64
2023/09/27 01:23:01;;;;;;;0.25;0.25;;;15.50;99.90;;;;;;5024051;28;20053;-64
2023/09/27 01:25:31;;;;;;;0.20;0.20;;;15.40;99.90;;;;;;5030732;28;20045;-64
2023/09/27 01:28:01;;;;;;;0.30;0.30;;;15.40;99.90;;;;;;5027143;28;20132;-64
2023/09/27 01:30:33;;;;;;;0.95;0.88;;;15.50;99.90;;;;;;5020020;28;20500;-64
2023/09/27 01:33:05;;;;;;;0.60;0.30;;;15.60;99.90;;;;;;5029647;28;20396;-65
2023/09/27 01:35:38;;;;;;;0.28;0.28;;;15.60;99.90;;;;;;5019393;28;20034;-64
2023/09/27 01:38:04;;;;;;;;;;;15.50;99.90;;;;;;5031958;28;20049;-64
2023/09/27 01:40:31;;;;;;;0.20;0.20;;;15.50;99.90;;;;;;5031449;28;19925;-64
2023/09/27 01:43:01;;;;;;;0.25;0.25;;;15.50;99.90;;;;;;5019344;28;20042;-64
2023/09/27 01:45:29;;;;;;;0.28;0.28;;;15.50;99.90;;;;;;5018427;28;20429;-64
2023/09/27 01:47:54;;;;;;;0.38;0.38;;;15.40;99.90;;;;;;5025299;28;20092;-64
2023/09/27 01:50:23;;;;;;;1.73;1.05;;;15.50;99.90;;;;;;5034976;28;20049;-64
2023/09/27 01:52:49;;;;;;;0.43;0.43;;;15.50;99.90;;;;;;5034876;28;20041;-65
2023/09/27 01:55:15;;;;;;;0.38;0.38;;;15.50;99.90;;;;;;5028279;28;20042;-64
2023/09/27 01:57:41;;;;;;;0.77;0.65;;;15.40;99.90;;;;;;5018590;28;20053;-64
2023/09/27 02:00:11;;;;;;;0.77;0.77;;;15.40;99.90;;;;;;5034718;28;20084;-64
2023/09/27 02:02:56;;;;;;;0.55;0.43;;;15.30;99.90;;;;;;5031981;28;20049;-64
2023/09/27 02:05:22;;;;;;;0.43;0.43;;;15.40;99.90;;;;;;5022633;28;20045;-64
2023/09/27 02:07:48;;;;;;;0.35;0.20;;;15.30;99.90;;;;;;5034710;28;20431;-64
2023/09/27 02:10:14;;;;;;;1.17;0.75;;;15.30;99.90;;;;;;5023056;28;20042;-64
2023/09/27 02:12:40;;;;;;;0.63;0.63;;;15.30;99.90;;;;;;5021887;28;20087;-64
2023/09/27 02:15:10;;;;;;;2.78;1.08;;;15.30;99.90;;;;;;5024597;28;20045;-64
2023/09/27 02:17:36;;;;;;;0.88;0.88;;;15.30;99.90;;;;;;5025792;28;20055;-64
2023/09/27 02:20:07;;;;;;;0.20;0.20;;;15.30;99.90;;;;;;5030758;28;20038;-64
2023/09/27 02:22:36;;;;;;;3.53;1.38;;;15.30;99.90;;;;;;5034383;28;20096;-64
2023/09/27 02:25:02;;;;;;;2.30;0.65;;;15.30;99.90;;;;;;5033535;28;20041;-65
2023/09/27 02:27:28;;;;;;;0.45;0.45;;;15.20;99.90;;;;;;5029432;28;20057;-64
2023/09/27 02:29:53;;;;;;;0.95;0.70;;;15.20;99.90;;;;;;5018677;28;20095;-64
2023/09/27 02:32:19;;;;;;;0.28;0.28;;;15.20;99.90;;;;;;5030034;28;20045;-64
2023/09/27 02:34:46;;;;;;;0.10;0.10;;;15.10;99.90;;;;;;5027195;28;20053;-64
2023/09/27 02:37:15;;;;;;;0.43;0.43;;;15.10;99.90;;;;;;5026494;28;20045;-64
2023/09/27 02:39:43;;;;;;;0.30;0.30;;;15.10;99.90;;;;;;5034053;28;20045;-64
2023/09/27 02:42:13;;;;;;;0.20;0.20;;;15.10;99.90;;;;;;5020247;28;20050;-64
2023/09/27 02:44:39;;;;;;;0.85;0.47;;;15.10;99.90;;;;;;5031623;28;20092;-64
2023/09/27 02:47:07;;;;;;;0.30;0.30;;;15.10;99.90;;;;;;5024597;28;20033;-64
2023/09/27 02:49:35;;;;;;;0.45;0.45;;;15.10;99.90;;;;;;5029419;28;20037;-64
2023/09/27 02:52:00;;;;;;;1.10;1.00;;;15.10;99.90;;;;;;5024835;28;20124;-64
2023/09/27 02:54:27;;;;;;;0.03;0.03;;;15.10;99.90;;;;;;5031752;28;20109;-64
2023/09/27 02:56:52;;;;;;;0.22;0.22;;;15.10;99.90;;;;;;5021859;28;20084;-64
2023/09/27 02:59:18;;;;;;;0.32;0.32;;;15.10;99.90;;;;;;5033151;28;20501;-64
2023/09/27 03:01:44;;;;;;;0.10;0.10;;;15.10;99.90;;;;;;5033852;28;20049;-64
2023/09/27 03:04:11;;;;;;;0.30;0.30;;;15.10;99.90;;;;;;5028649;28;20132;-64
2023/09/27 03:06:41;;;;;;;0.45;0.45;;;15.10;99.90;;;;;;5025622;28;20041;-64
2023/09/27 03:09:11;;;;;;;0.40;0.40;;;15.10;99.90;;;;;;5033442;28;20051;-64
2023/09/27 03:11:37;;;;;;;0.30;0.30;;;15.00;99.90;;;;;;5030787;28;20033;-64
2023/09/27 03:14:04;;;;;;;0.40;0.40;;;15.10;99.90;;;;;;5022012;28;20567;-64
2023/09/27 03:16:29;;;;;;;0.20;0.20;;;15.00;99.90;;;;;;5033623;28;20033;-64
2023/09/27 03:18:55;;;;;;;0.15;0.15;;;15.00;99.90;;;;;;5033514;28;20042;-64
2023/09/27 03:21:21;;;;;;;2.17;1.98;;;15.00;99.90;;;;;;5020790;28;20050;-64
2023/09/27 03:23:47;;;;;;;0.40;0.40;;;14.90;99.90;;;;;;5020005;28;20435;-64
2023/09/27 03:26:13;;;;;;;0.25;0.25;;;15.00;99.90;;;;;;5021693;28;20041;-64
2023/09/27 03:28:38;;;;;;;0.50;0.50;;;15.00;99.90;;;;;;5033375;28;20056;-65
2023/09/27 03:31:05;;;;;;;0.47;0.47;;;14.90;99.90;;;;;;5033186;28;20049;-64
2023/09/27 03:33:31;;;;;;;0.10;0.10;;;15.00;99.90;;;;;;5026578;28;20392;-64
2023/09/27 03:35:57;;;;;;;0.77;0.77;;;14.90;99.90;;;;;;5022007;28;20048;-64
2023/09/27 03:38:23;;;;;;;0.25;0.25;;;14.90;99.90;;;;;;5024005;28;20070;-64
2023/09/27 03:40:49;;;;;;;0.10;0.10;;;14.90;99.90;;;;;;5030596;28;20092;-64
2023/09/27 03:43:15;;;;;;;0.35;0.35;;;14.90;99.90;;;;;;5018366;28;20067;-64
2023/09/27 03:45:41;;;;;;;0.28;0.28;;;14.90;99.90;;;;;;5031013;28;20556;-64
2023/09/27 03:48:06;;;;;;;0.30;0.30;;;14.80;99.90;;;;;;5021198;28;20065;-64
2023/09/27 03:50:32;;;;;;;0.52;0.52;;;14.80;99.90;;;;;;5030486;28;20543;-64
2023/09/27 03:52:58;;;;;;;0.45;0.45;;;14.90;99.90;;;;;;5032500;28;20065;-64
2023/09/27 03:55:24;;;;;;;0.40;0.40;;;14.80;99.90;;;;;;5031806;28;20057;-64
2023/09/27 03:57:51;;;;;;;0.20;0.20;;;14.80;99.90;;;;;;5029007;28;20496;-64
2023/09/27 04:00:18;;;;;;;0.10;0.10;;;14.80;99.90;;;;;;5032726;28;20048;-64
2023/09/27 04:02:44;;;;;;;0.20;0.20;;;14.80;99.90;;;;;;5022402;28;20045;-64
2023/09/27 04:05:11;;;;;;;0.90;0.52;;;14.80;99.90;;;;;;5028671;28;20053;-64
2023/09/27 04:07:36;;;;;;;0.50;0.50;;;14.70;99.90;;;;;;5030314;28;20037;-64
2023/09/27 04:10:08;;;;;;;0.00;0.00;;;14.80;99.90;;;;;;5024831;28;20096;-64
2023/09/27 04:12:34;;;;;;;0.17;0.17;;;14.70;99.90;;;;;;5022453;28;20053;-64
2023/09/27 04:15:00;;;;;;;1.05;0.63;;;14.70;99.90;;;;;;5022246;28;20435;-64
2023/09/27 04:17:27;;;;;;;0.10;0.10;;;14.70;99.90;;;;;;5030691;28;20116;-64
2023/09/27 04:19:55;;;;;;;0.38;0.38;;;14.70;99.90;;;;;;5022903;28;20048;-64
2023/09/27 04:22:21;;;;;;;1.38;1.13;;;14.70;99.90;;;;;;5023416;28;20060;-64
2023/09/27 04:24:46;;;;;;;0.15;0.08;;;14.70;99.90;;;;;;5031606;28;20489;-64
2023/09/27 04:27:12;;;;;;;0.63;0.63;;;14.60;99.90;;;;;;5021718;28;20065;-64
2023/09/27 04:29:38;;;;;;;0.20;0.20;;;14.60;99.90;;;;;;5024005;28;20057;-64
2023/09/27 04:32:04;;;;;;;1.20;1.10;;;14.60;99.90;;;;;;5024514;28;20045;-64
2023/09/27 04:34:30;;;;;;;0.43;0.43;;;14.60;99.90;;;;;;5030804;28;20041;-64
2023/09/27 04:36:56;;;;;;;0.45;0.45;;;14.60;99.90;;;;;;5025738;28;20049;-64
2023/09/27 04:39:21;;;;;;;3.63;0.65;;;14.60;99.90;;;;;;5024714;28;20491;-64
2023/09/27 04:41:47;;;;;;;0.57;0.57;;;14.70;99.90;;;;;;5031692;28;20034;-64
2023/09/27 04:44:16;;;;;;;0.20;0.20;;;14.70;99.90;;;;;;5018491;28;20435;-64
2023/09/27 04:46:41;;;;;;;0.45;0.45;;;14.60;99.90;;;;;;5030056;28;20042;-64
2023/09/27 04:49:07;;;;;;;0.60;0.60;;;14.60;99.90;;;;;;5032042;28;20547;-64
2023/09/27 04:51:33;;;;;;;0.93;0.85;;;14.70;99.90;;;;;;5013323;28;20117;-64
2023/09/27 04:54:02;;;;;;;1.65;1.52;;;14.70;99.90;;;;;;5021889;28;20075;-64
2023/09/27 04:56:29;;;;;;;0.57;0.57;;;14.60;99.90;;;;;;5027778;28;20489;-64
2023/09/27 04:58:55;;;;;;;0.65;0.65;;;14.60;99.90;;;;;;5020238;28;20051;-64
2023/09/27 05:01:22;;;;;;;0.75;0.63;;;14.50;99.90;;;;;;5031917;28;20057;-64
2023/09/27 05:03:48;;;;;;;0.73;0.55;;;14.50;99.90;;;;;;5031648;28;20046;-64
2023/09/27 05:06:14;;;;;;;0.40;0.40;;;14.40;99.90;;;;;;5018796;28;20034;-64
2023/09/27 05:08:40;;;;;;;0.10;0.10;;;14.40;99.90;;;;;;5020405;28;20476;-64
2023/09/27 05:11:06;;;;;;;0.22;0.22;;;14.40;99.90;;;;;;5029575;28;20053;-64
2023/09/27 05:13:32;;;;;;;2.00;1.63;;;14.30;99.90;;;;;;5014600;28;20041;-64
2023/09/27 05:15:57;;;;;;;0.90;0.90;;;14.30;99.90;;;;;;5027906;28;20099;-64
2023/09/27 05:18:23;;;;;;;0.50;0.50;;;14.40;99.90;;;;;;5031187;28;20069;-64
2023/09/27 05:20:48;;;;;;;0.30;0.30;;;14.40;99.90;;;;;;5023851;28;20117;-64
2023/09/27 05:23:14;;;;;;;1.38;0.80;;;14.40;99.90;;;;;;5031968;28;20436;-64
2023/09/27 05:25:40;;;;;;;23.75;2.88;;;14.30;99.90;;;;;;5029315;28;20046;-64
2023/09/27 05:28:06;;;;;;;0.38;0.32;;;14.30;99.90;;;;;;5030825;28;20102;-64
2023/09/27 05:30:32;;;;;;;0.28;0.28;;;14.30;99.90;;;;;;5034372;28;20049;-64
2023/09/27 05:32:57;;;;;;;1.10;0.80;;;14.30;99.90;;;;;;5034660;28;20489;-64
2023/09/27 05:35:23;;;;;;;1.10;1.02;;;14.40;99.90;;;;;;5024110;28;20046;-64
2023/09/27 05:37:50;;;;;;;0.30;0.30;;;14.40;99.90;;;;;;5030736;28;20049;-64
2023/09/27 05:40:16;;;;;;;0.68;0.68;;;14.40;99.90;;;;;;5035098;28;20052;-64
2023/09/27 05:42:42;;;;;;;0.55;0.55;;;14.40;99.90;;;;;;5024842;28;20493;-64
2023/09/27 05:45:12;;;;;;;0.13;0.13;;;14.40;99.90;;;;;;5022460;28;20496;-64
2023/09/27 05:47:39;;;;;;;0.43;0.43;;;14.40;99.90;;;;;;5034285;28;20124;-64
2023/09/27 05:50:05;;;;;;;11.98;0.95;;;14.40;99.90;;;;;;5030051;28;20054;-64
2023/09/27 05:52:34;;;;;;;0.73;0.47;;;14.40;99.90;;;;;;5031217;28;20037;-64
2023/09/27 05:55:00;;;;;;;1.05;0.98;;;14.40;99.90;;;;;;5029815;28;20050;-65
2023/09/27 05:57:25;;;;;;;1.25;1.15;;;14.40;99.90;;;;;;5015701;28;20045;-64
2023/09/27 05:59:51;;;;;;;0.55;0.52;;;14.40;99.90;;;;;;5034556;28;20041;-64
2023/09/27 06:02:16;;;;;;;0.65;0.65;;;14.40;99.90;;;;;;5030436;28;20116;-64
2023/09/27 06:04:43;;;;;;;0.22;0.22;;;14.50;99.90;;;;;;5033336;28;20052;-64
2023/09/27 06:07:13;;;;;;;0.10;0.10;;;14.40;99.90;;;;;;5019870;28;20505;-64
2023/09/27 06:09:42;;;;;;;0.20;0.20;;;14.50;99.90;;;;;;5031556;28;20045;-64
2023/09/27 06:12:10;;;;;;;1.42;1.33;;;14.50;99.90;;;;;;5033100;28;20056;-64
2023/09/27 06:14:35;;;;;;;0.28;0.28;;;14.50;99.90;;;;;;5034802;28;20112;-64
2023/09/27 06:17:02;;;;;;;0.30;0.30;;;14.50;99.90;;;;;;5021034;28;20132;-64
2023/09/27 06:19:28;;;;;;;0.82;0.82;;;14.60;99.90;;;;;;5025276;28;20036;-64
2023/09/27 06:21:54;;;;;;;0.20;0.20;;;14.50;99.90;;;;;;5033923;28;20433;-64
2023/09/27 06:24:19;;;;;;;0.10;0.10;;;14.60;99.90;;;;;;5029789;28;20382;-64
2023/09/27 06:26:45;;;;;;;0.25;0.25;;;14.60;99.90;;;;;;5025354;28;20045;-64
2023/09/27 06:29:10;;;;;;;1.13;1.02;;;14.70;99.90;;;;;;5032205;28;20073;-64
2023/09/27 06:31:36;;;;;;;1.50;1.08;;;14.70;99.90;;;;;;5026397;28;20049;-64
2023/09/27 06:34:02;;;;;;;1.40;0.63;;;14.70;99.90;;;;;;5025892;28;20080;-64
2023/09/27 06:36:29;;;;;;;0.47;0.47;;;14.80;99.90;;;;;;5033391;28;20049;-64
2023/09/27 06:38:56;;;;;;;0.50;0.47;;;14.90;99.90;;;;;;5027613;28;20092;-64
2023/09/27 06:41:22;;;;;;;0.45;0.45;;;14.90;99.90;;;;;;5030002;28;20049;-64
2023/09/27 06:43:48;;;;;;;1.15;0.80;;;15.00;99.90;;;;;;5032978;28;20041;-64
2023/09/27 06:46:15;;;;;;;2.83;0.93;;;15.00;99.90;;;;;;5026484;28;20045;-64
2023/09/27 06:48:41;;;;;;;0.40;0.40;;;15.10;99.90;;;;;;5025992;28;20037;-64
2023/09/27 06:51:07;;;;;;;0.52;0.52;;;15.10;99.90;;;;;;5033317;28;20650;-64
2023/09/27 06:53:33;;;;;;;0.30;0.30;;;15.20;99.90;;;;;;5025219;28;20066;-64
2023/09/27 06:55:59;;;;;;;0.32;0.32;;;15.20;99.90;;;;;;5017187;28;20057;-64
2023/09/27 06:58:25;;;;;;;0.22;0.22;;;15.30;99.90;;;;;;5030563;28;20044;-64
2023/09/27 07:00:54;;;;;;;1.17;0.55;;;15.40;99.90;;;;;;5021039;28;20049;-64
2023/09/27 07:03:24;;;;;;;0.47;0.47;;;15.40;99.90;;;;;;5032525;28;20542;-64
2023/09/27 07:05:54;;;;;;;0.47;0.47;;;15.40;99.90;;;;;;5030735;28;20053;-64
2023/09/27 07:08:20;;;;;;;0.80;0.80;;;15.50;99.90;;;;;;5031297;28;20053;-64
2023/09/27 07:10:46;;;;;;;1.23;0.93;;;15.50;99.90;;;;;;5033436;28;20120;-64
2023/09/27 07:13:11;;;;;;;0.28;0.28;;;15.50;99.90;;;;;;5028328;28;20046;-64
2023/09/27 07:15:37;;;;;;;0.20;0.20;;;15.50;99.90;;;;;;5019332;28;20041;-64
2023/09/27 07:18:04;;;;;;;0.20;0.20;;;15.50;99.90;;;;;;5033356;28;20094;-64
2023/09/27 07:20:33;;;;;;;0.38;0.38;;;15.60;99.90;;;;;;5015771;28;20044;-64
2023/09/27 07:22:59;;;;;;;2.33;0.88;;;15.60;99.90;;;;;;5021040;28;20050;-64
2023/09/27 07:25:26;;;;;;;0.00;0.00;;;15.60;99.90;;;;;;5015775;28;20375;-64
2023/09/27 07:27:52;;;;;;;1.55;0.85;;;15.70;99.90;;;;;;5028335;28;20053;-64
2023/09/27 07:30:20;;;;;;;0.43;0.40;;;15.70;99.90;;;;;;5032138;28;20050;-65
2023/09/27 07:32:46;;;;;;;0.08;0.08;;;15.70;99.90;;;;;;5032787;28;20080;-64
2023/09/27 07:35:14;;;;;;;1.88;0.82;;;15.80;99.90;;;;;;5031901;28;20037;-64
2023/09/27 07:37:41;;;;;;;0.10;0.10;;;15.80;99.90;;;;;;5028573;28;20053;-64
2023/09/27 07:40:09;;;;;;;0.50;0.50;;;15.80;99.90;;;;;;5020574;28;20102;-64
2023/09/27 07:42:41;;;;;;;0.38;0.38;;;15.80;99.90;;;;;;5033095;28;20385;-64
2023/09/27 07:45:14;;;;;;;1.02;0.85;;;15.90;99.90;;;;;;5032691;28;20041;-64
2023/09/27 07:47:39;;;;;;;0.35;0.35;;;15.90;99.90;;;;;;5029676;28;20049;-64
2023/09/27 07:50:05;;;;;;;0.25;0.25;;;16.00;99.90;;;;;;5023093;28;20540;-64
2023/09/27 07:52:31;;;;;;;0.30;0.25;;;16.10;99.90;;;;;;5021541;28;20076;-64
2023/09/27 07:54:58;;;;;;;0.20;0.20;;;16.20;99.90;;;;;;5029082;28;20051;-64
2023/09/27 07:57:24;;;;;;;0.10;0.10;;;16.30;99.90;;;;;;5028190;28;20095;-64
2023/09/27 07:59:50;;;;;;;1.75;0.77;;;16.30;99.90;;;;;;5030638;28;20045;-64
2023/09/27 08:02:16;;;;;;;0.90;0.88;;;16.40;99.90;;;;;;5019860;28;20439;-64
2023/09/27 08:04:42;;;;;;;1.55;0.65;;;16.50;99.90;;;;;;5027842;28;20041;-65
2023/09/27 08:07:07;;;;;;;0.10;0.10;;;16.50;99.90;;;;;;5032636;28;20499;-64
2023/09/27 08:09:38;;;;;;;0.32;0.32;;;16.50;99.90;;;;;;5023883;28;20038;-65
2023/09/27 08:12:06;;;;;;;0.25;0.25;;;16.60;99.90;;;;;;5031060;28;20041;-64
2023/09/27 08:14:36;;;;;;;0.50;0.32;;;16.70;99.90;;;;;;5031991;28;20033;-64
2023/09/27 08:17:02;;;;;;;0.60;0.47;;;16.70;99.90;;;;;;5027180;28;20560;-64
2023/09/27 08:19:29;;;;;;;0.17;0.17;;;16.70;99.90;;;;;;5020258;28;20171;-64
2023/09/27 08:21:56;;;;;;;0.30;0.30;;;16.70;99.90;;;;;;5030508;28;20097;-64
2023/09/27 08:24:22;;;;;;;1.33;0.80;;;16.70;99.90;;;;;;5029059;28;20052;-64
2023/09/27 08:26:48;;;;;;;0.00;0.00;;;16.80;99.90;;;;;;5022685;28;20048;-64
2023/09/27 08:29:13;;;;;;;0.08;0.08;;;16.90;99.90;;;;;;5031201;28;20041;-64
2023/09/27 08:31:40;;;;;;;1.42;0.75;;;16.80;99.90;;;;;;5022087;28;20131;-64
2023/09/27 08:34:05;;;;;;;0.40;0.40;;;17.00;99.90;;;;;;5021898;28;20037;-64
2023/09/27 08:36:31;;;;;;;0.10;0.10;;;17.10;99.90;;;;;;5021827;28;20057;-64
2023/09/27 08:38:57;;;;;;;0.40;0.40;;;17.10;99.90;;;;;;5030034;28;22554;-64
2023/09/27 08:41:27;;;;;;;1.23;0.60;;;17.30;99.90;;;;;;5019628;28;20477;-64
2023/09/27 08:43:55;;;;;;;0.15;0.15;;;17.40;99.90;;;;;;5023573;28;20045;-64
2023/09/27 08:46:23;;;;;;;0.68;0.68;;;17.50;99.90;;;;;;5031730;28;20041;-64
2023/09/27 08:48:51;;;;;;;1.85;1.58;;;17.60;99.90;;;;;;5026697;28;20054;-64
2023/09/27 08:51:17;;;;;;;1.88;1.10;;;17.60;99.90;;;;;;5027632;28;20154;-64
2023/09/27 08:53:42;;;;;;;0.50;0.50;;;17.60;99.90;;;;;;5024963;28;20133;-64
2023/09/27 08:56:11;;;;;;;0.40;0.40;;;17.60;99.90;;;;;;5023357;28;20473;-64
2023/09/27 08:58:38;;;;;;;0.00;0.00;;;17.60;99.90;;;;;;5030875;28;20045;-64
2023/09/27 09:01:08;;;;;;;0.00;0.00;;;17.60;99.90;;;;;;5020748;28;20172;-64
2023/09/27 09:03:36;;;;;;;0.75;0.75;;;17.70;99.90;;;;;;5019249;28;20034;-64
2023/09/27 09:06:04;;;;;;;1.20;1.10;;;17.80;99.90;;;;;;5027493;28;20480;-64
2023/09/27 09:08:30;;;;;;;0.73;0.73;;;17.80;99.90;;;;;;5022550;28;20056;-64
2023/09/27 09:10:56;;;;;;;0.55;0.55;;;17.80;99.90;;;;;;5031046;28;20033;-64
2023/09/27 09:13:22;;;;;;;0.43;0.43;;;17.90;99.90;;;;;;5031588;28;20062;-64
2023/09/27 09:15:49;;;;;;;0.40;0.40;;;17.90;99.90;;;;;;5025485;28;20073;-64
2023/09/27 09:18:42;;;;;;;1.27;0.80;;;17.90;99.90;;;;;;5018158;28;20049;-64
2023/09/27 09:21:18;;;;;;;0.15;0.15;;;17.90;99.90;;;;;;5029719;28;20104;-64
2023/09/27 09:23:48;;;;;;;0.25;0.20;;;18.00;99.90;;;;;;5024474;28;20510;-64
2023/09/27 09:26:27;;;;;;;0.20;0.20;;;18.00;99.90;;;;;;5012566;28;20054;-64
2023/09/27 09:28:57;;;;;;;0.00;0.00;;;18.10;99.90;;;;;;5031800;28;20077;-64
2023/09/27 09:31:24;;;;;;;0.40;0.40;;;18.10;99.90;;;;;;5028668;28;20053;-64
2023/09/27 09:34:06;;;;;;;0.45;0.45;;;18.10;99.90;;;;;;5028669;28;20404;-64
2023/09/27 09:36:33;;;;;;;0.20;0.15;;;18.20;99.90;;;;;;5022696;28;20045;-64
2023/09/27 09:39:05;;;;;;;1.88;0.40;;;18.20;99.90;;;;;;5028517;28;20481;-64
2023/09/27 09:42:06;;;;;;;0.32;0.32;;;18.30;99.90;;;;;;5020687;28;20381;-64
2023/09/27 09:44:31;;;;;;;0.05;0.05;;;18.40;99.90;;;;;;4980571;28;20105;-64
2023/09/27 09:47:12;;;;;;;0.03;0.03;;;18.40;99.90;;;;;;5015730;28;20508;-64
2023/09/27 09:49:38;;;;;;;0.30;0.15;;;18.50;99.90;;;;;;5017703;28;20042;-64
2023/09/27 09:52:05;;;;;;;0.10;0.10;;;18.50;99.90;;;;;;5031581;28;20366;-64
2023/09/27 09:54:46;;;;;;;0.22;0.22;;;18.50;99.90;;;;;;5030453;28;20049;-64
2023/09/27 09:57:13;;;;;;;0.15;0.10;;;18.50;99.90;;;;;;5014480;28;20068;-64
2023/09/27 10:00:16;;;;;;;0.08;0.08;;;18.40;99.90;;;;;;5029057;28;20439;-65
2023/09/27 10:02:51;;;;;;;0.17;0.17;;;18.40;99.90;;;;;;5017304;28;20042;-64
2023/09/27 10:05:19;;;;;;;0.38;0.38;;;18.40;99.90;;;;;;5023564;28;20045;-64
2023/09/27 10:07:46;;;;;;;0.77;0.63;;;18.40;99.90;;;;;;5032445;28;20045;-65
2023/09/27 10:10:15;;;;;;;1.38;0.38;;;18.30;99.90;;;;;;5034620;28;20076;-65
2023/09/27 10:12:45;;;;;;;0.50;0.50;;;18.40;99.90;;;;;;5031003;28;20034;-64
2023/09/27 10:15:11;;;;;;;13.60;0.52;;;18.30;99.90;;;;;;5031277;28;20037;-65
2023/09/27 10:17:37;;;;;;;0.28;0.28;;;18.40;99.90;;;;;;5034703;28;20038;-65
2023/09/27 10:20:14;;;;;;;1.67;1.58;;;18.40;99.90;;;;;;5022659;28;20049;-64
2023/09/27 10:22:41;;;;;;;0.10;0.10;;;18.40;99.90;;;;;;5026635;28;20049;-64
2023/09/27 10:25:33;;;;;;;0.32;0.32;;;18.40;99.90;;;;;;5028710;28;20424;-64
2023/09/27 10:28:01;;;;;;;1.02;0.52;;;18.50;99.90;;;;;;5015291;28;20409;-65
2023/09/27 10:30:48;;;;;;;0.80;0.80;;;18.60;99.90;;;;;;5029777;28;20041;-64
2023/09/27 10:33:16;;;;;;;3.70;1.10;;;18.80;99.90;;;;;;5024576;28;20081;-64
2023/09/27 10:35:44;;;;;;;0.35;0.35;;;19.00;99.90;;;;;;5019138;28;20050;-65
2023/09/27 10:38:10;;;;;;;0.52;0.40;;;19.10;99.90;;;;;;5024134;28;20390;-64
2023/09/27 10:40:46;;;;;;;0.30;0.30;;;19.10;99.90;;;;;;5032811;28;20056;-64
2023/09/27 10:43:38;;;;;;;0.40;0.40;;;19.10;99.90;;;;;;5023146;28;20046;-65
2023/09/27 10:46:04;;;;;;;0.63;0.63;;;19.10;99.90;;;;;;5032870;28;20057;-64
2023/09/27 10:48:31;;;;;;;0.50;0.50;;;19.10;99.90;;;;;;5023874;28;20081;-64
2023/09/27 10:50:57;;;;;;;0.75;0.73;;;19.10;99.90;;;;;;5025294;28;20124;-64
2023/09/27 10:53:23;;;;;;;0.30;0.30;;;19.10;99.90;;;;;;5030149;28;20198;-64
2023/09/27 10:55:49;;;;;;;1.10;0.43;;;19.10;99.90;;;;;;5030675;28;20381;-64
2023/09/27 10:58:15;;;;;;;0.55;0.55;;;19.10;99.90;;;;;;5033142;28;20098;-64
2023/09/27 11:00:57;;;;;;;0.20;0.20;;;19.10;99.90;;;;;;5021214;28;20384;-64
2023/09/27 11:03:23;;;;;;;0.00;0.00;;;19.10;99.90;;;;;;5026917;28;20044;-64
2023/09/27 11:05:50;;;;;;;0.22;0.22;;;19.00;99.90;;;;;;5033462;28;20524;-64
2023/09/27 11:08:25;;;;;;;0.85;0.82;;;19.00;99.90;;;;;;5023212;28;20518;-64
2023/09/27 11:10:52;;;;;;;0.40;0.40;;;19.00;99.90;;;;;;5024548;28;20041;-64
2023/09/27 11:13:19;;;;;;;0.55;0.55;;;18.90;99.90;;;;;;5025540;28;20049;-64
2023/09/27 11:15:45;;;;;;;0.22;0.22;;;19.00;99.90;;;;;;5023927;28;20061;-64
2023/09/27 11:18:11;;;;;;;0.03;0.03;;;19.00;99.90;;;;;;5031600;28;20037;-65
2023/09/27 11:20:38;;;;;;;7.47;0.90;;;19.10;99.90;;;;;;5017313;28;20045;-64
2023/09/27 11:23:04;;;;;;;0.60;0.60;;;19.10;99.90;;;;;;5030075;28;20046;-64
2023/09/27 11:25:34;;;;;;;0.75;0.43;;;19.00;99.90;;;;;;5021476;28;20045;-64
2023/09/27 11:28:01;;;;;;;0.52;0.40;;;19.00;99.90;;;;;;5031478;28;20042;-64
2023/09/27 11:30:30;;;;;;;0.60;0.30;;;19.00;99.90;;;;;;5032142;28;20550;-64
2023/09/27 11:32:57;;;;;;;1.83;0.57;;;19.00;99.90;;;;;;5032418;28;20057;-64
2023/09/27 11:35:24;;;;;;;0.32;0.28;;;19.30;99.90;;;;;;5022561;28;20056;-64
2023/09/27 11:38:06;;;;;;;0.00;0.00;;;19.80;99.90;;;;;;5025912;28;20053;-64
2023/09/27 11:40:33;;;;;;;0.52;0.52;;;20.10;99.90;;;;;;5030893;28;20153;-64
2023/09/27 11:42:58;;;;;;;1.27;1.05;;;20.00;99.90;;;;;;5025040;28;20369;-64
2023/09/27 11:45:24;;;;;;;0.00;0.00;;;20.20;99.90;;;;;;5025114;28;20053;-64
2023/09/27 11:47:50;;;;;;;0.10;0.10;;;20.40;99.90;;;;;;5014519;28;20445;-64
2023/09/27 11:50:19;;;;;;;0.28;0.28;;;20.40;99.90;;;;;;5018428;28;20038;-64
2023/09/27 11:52:48;;;;;;;0.85;0.85;;;20.50;99.90;;;;;;5027508;28;20094;-64
2023/09/27 11:55:15;;;;;;;1.73;0.60;;;21.00;99.90;;;;;;5032540;28;20040;-64
2023/09/27 11:57:40;;;;;;;0.60;0.60;;;21.50;99.90;;;;;;5029690;28;20152;-64
2023/09/27 12:00:17;;;;;;;0.20;0.20;;;21.90;99.90;;;;;;5018632;28;20117;-64
2023/09/27 12:02:43;;;;;;;0.20;0.20;;;22.10;99.90;;;;;;5022626;28;20053;-64
2023/09/27 12:05:09;;;;;;;0.35;0.35;;;22.30;99.90;;;;;;5029531;28;20033;-64
2023/09/27 12:07:35;;;;;;;0.30;0.30;;;22.70;99.90;;;;;;5031407;28;20053;-64
2023/09/27 12:10:00;;;;;;;0.45;0.45;;;23.10;99.90;;;;;;5030318;28;20053;-64
2023/09/27 12:12:27;;;;;;;0.10;0.10;;;23.50;99.90;;;;;;5028950;28;20373;-64
2023/09/27 12:14:53;;;;;;;0.52;0.40;;;23.60;99.90;;;;;;5031560;28;20070;-64
2023/09/27 12:17:19;;;;;;;0.32;0.32;;;23.90;99.90;;;;;;5032216;28;20060;-64
2023/09/27 12:19:45;;;;;;;0.20;0.20;;;24.00;99.90;;;;;;5022125;28;20033;-64
2023/09/27 12:22:11;;;;;;;0.90;0.50;;;24.20;99.90;;;;;;5022750;28;20500;-64
2023/09/27 12:24:37;;;;;;;0.20;0.15;;;24.20;99.90;;;;;;5026830;28;20110;-64
2023/09/27 12:27:04;;;;;;;1.13;0.68;;;24.30;99.90;;;;;;5031083;28;20052;-64
2023/09/27 12:29:30;;;;;;;0.43;0.43;;;24.60;99.90;;;;;;5026412;28;20053;-64
2023/09/27 12:31:55;;;;;;;0.50;0.50;;;24.70;99.90;;;;;;5027087;28;20041;-65
2023/09/27 12:34:21;;;;;;;0.38;0.38;;;24.80;99.90;;;;;;5032035;28;20044;-64
2023/09/27 12:36:47;;;;;;;0.65;0.40;;;25.00;99.90;;;;;;5021090;28;20572;-65
2023/09/27 12:39:13;;;;;;;0.20;0.20;;;25.00;99.90;;;;;;5030573;28;20067;-64
2023/09/27 12:41:39;;;;;;;0.95;0.77;;;25.20;99.90;;;;;;5012748;28;20402;-64
2023/09/27 12:44:05;;;;;;;0.30;0.30;;;25.10;99.90;;;;;;5025702;28;20048;-64
2023/09/27 12:46:31;;;;;;;0.00;0.00;;;25.30;99.90;;;;;;5018623;28;20049;-64
2023/09/27 12:48:56;;;;;;;0.65;0.40;;;25.40;99.90;;;;;;5022808;28;20045;-64
2023/09/27 12:51:22;;;;;;;0.00;0.00;;;25.40;99.90;;;;;;5032090;28;20124;-65